createdAt,value
2019-04-16T00:01:53.987Z,44.80
2019-04-16T00:04:38.203Z,45.45
2019-04-16T00:07:25.981Z,45.56
2019-04-16T00:10:15.203Z,45.60
2019-04-16T00:12:50.345Z,45.28
2019-04-16T00:15:20.905Z,45.20
2019-04-16T00:17:50.803Z,45.58
2019-04-16T00:20:20.732Z,45.89
2019-04-16T00:23:00.568Z,46.18
2019-04-16T00:25:31.827Z,46.11
2019-04-16T00:28:01.844Z,45.76
2019-04-16T00:30:35.490Z,45.71
2019-04-16T00:33:03.334Z,45.92
2019-04-16T00:35:33.176Z,45.81
2019-04-16T00:38:02.957Z,46.35
2019-04-16T00:40:32.734Z,46.50
2019-04-16T00:43:02.675Z,46.08
2019-04-16T00:45:32.885Z,46.33
2019-04-16T00:48:02.716Z,46.61
2019-04-16T00:50:32.648Z,46.60
2019-04-16T00:53:07.629Z,46.85
2019-04-16T00:55:34.415Z,47.27
2019-04-16T00:58:05.743Z,47.32
2019-04-16T01:00:35.767Z,47.37
2019-04-16T01:03:05.731Z,47.49
2019-04-16T01:05:35.862Z,47.49
2019-04-16T01:08:05.860Z,47.78
2019-04-16T01:10:35.635Z,47.89
2019-04-16T01:13:05.581Z,48.02
2019-04-16T01:15:35.684Z,48.08
2019-04-16T01:18:08.057Z,48.06
2019-04-16T01:20:37.246Z,48.26
2019-04-16T01:23:07.068Z,48.36
2019-04-16T01:25:36.932Z,48.22
2019-04-16T01:28:10.020Z,48.31
2019-04-16T01:31:08.086Z,48.36
2019-04-16T01:33:47.430Z,48.37
2019-04-16T01:36:29.671Z,48.43
2019-04-16T01:39:14.738Z,48.65
2019-04-16T01:41:34.727Z,48.84
2019-04-16T01:44:05.763Z,49.15
2019-04-16T01:46:35.768Z,49.47
2019-04-16T01:49:09.732Z,49.65
2019-04-16T01:51:37.819Z,49.75
2019-04-16T01:54:07.801Z,49.80
2019-04-16T01:56:37.661Z,49.97
2019-04-16T01:59:07.514Z,50.25
2019-04-16T02:01:37.406Z,50.33
2019-04-16T02:04:07.268Z,50.67
2019-04-16T02:06:37.207Z,50.67
2019-04-16T02:09:21.263Z,50.29
2019-04-16T02:11:41.413Z,50.64
2019-04-16T02:14:10.659Z,50.65
2019-04-16T02:16:40.567Z,50.67
2019-04-16T02:19:10.496Z,50.71
2019-04-16T02:21:41.457Z,51.02
2019-04-16T02:24:12.225Z,50.96
2019-04-16T02:26:42.047Z,51.25
2019-04-16T02:29:12.017Z,51.22
2019-04-16T02:31:41.935Z,51.36
2019-04-16T02:34:11.797Z,51.52
2019-04-16T02:36:41.710Z,51.75
2019-04-16T02:39:11.519Z,51.99
2019-04-16T02:41:41.730Z,52.07
2019-04-16T02:44:16.349Z,52.26
2019-04-16T02:46:43.240Z,52.51
2019-04-16T02:49:13.195Z,52.58
2019-04-16T02:51:49.136Z,52.90
2019-04-16T02:54:41.043Z,52.63
2019-04-16T02:57:29.886Z,52.91
2019-04-16T03:00:02.991Z,52.96
2019-04-16T03:02:48.602Z,53.04
2019-04-16T03:05:35.360Z,53.18
2019-04-16T03:08:05.973Z,53.09
2019-04-16T03:10:37.359Z,53.01
2019-04-16T03:13:07.293Z,53.16
2019-04-16T03:16:05.857Z,53.37
2019-04-16T03:18:48.374Z,53.44
2019-04-16T03:21:18.250Z,53.23
2019-04-16T03:23:48.805Z,53.09
2019-04-16T03:26:18.962Z,53.02
2019-04-16T03:28:48.829Z,53.20
2019-04-16T03:31:22.933Z,52.98
2019-04-16T03:33:51.179Z,52.90
2019-04-16T03:36:21.038Z,53.02
2019-04-16T03:38:50.994Z,52.82
2019-04-16T03:41:20.869Z,52.72
2019-04-16T03:43:50.813Z,53.15
2019-04-16T03:46:20.875Z,52.94
2019-04-16T03:48:52.668Z,53.20
2019-04-16T03:51:22.657Z,53.43
2019-04-16T03:53:52.603Z,53.31
2019-04-16T03:56:22.539Z,53.43
2019-04-16T03:58:52.462Z,53.75
2019-04-16T04:01:22.337Z,53.66
2019-04-16T04:03:54.443Z,53.49
2019-04-16T04:06:24.120Z,53.37
2019-04-16T04:08:53.969Z,53.54
2019-04-16T04:11:23.835Z,53.61
2019-04-16T04:13:53.694Z,53.90
2019-04-16T04:16:23.561Z,53.97
2019-04-16T04:18:53.420Z,54.01
2019-04-16T04:21:23.277Z,54.04
2019-04-16T04:23:53.125Z,53.66
2019-04-16T04:26:23.006Z,53.39
2019-04-16T04:28:52.806Z,53.25
2019-04-16T04:31:22.936Z,53.31
2019-04-16T04:33:52.805Z,53.39
2019-04-16T04:36:26.705Z,53.48
2019-04-16T04:38:54.449Z,53.56
2019-04-16T04:41:24.637Z,54.05
2019-04-16T04:43:54.965Z,53.73
2019-04-16T04:46:26.313Z,54.03
2019-04-16T04:49:00.017Z,54.11
2019-04-16T04:51:27.947Z,54.28
2019-04-16T04:53:58.093Z,54.29
2019-04-16T04:56:28.647Z,54.56
2019-04-16T04:58:59.007Z,54.92
2019-04-16T05:01:28.936Z,54.69
2019-04-16T05:04:23.987Z,54.71
2019-04-16T05:06:57.245Z,54.73
2019-04-16T05:09:29.380Z,54.68
2019-04-16T05:11:59.320Z,55.31
2019-04-16T05:14:29.106Z,55.84
2019-04-16T05:16:58.995Z,56.07
2019-04-16T05:19:29.778Z,56.04
2019-04-16T05:22:02.686Z,56.20
2019-04-16T05:24:33.558Z,58.26
2019-04-16T05:27:05.471Z,60.81
2019-04-16T05:29:35.301Z,61.85
2019-04-16T05:32:05.521Z,62.85
2019-04-16T05:34:37.408Z,63.20
2019-04-16T05:37:07.310Z,63.81
2019-04-16T05:39:37.248Z,63.40
2019-04-16T05:42:07.188Z,63.03
2019-04-16T05:44:37.349Z,62.94
2019-04-16T05:47:07.220Z,64.05
2019-04-16T05:49:37.171Z,64.03
2019-04-16T05:52:07.112Z,63.96
2019-04-16T05:54:55.047Z,63.51
2019-04-16T05:57:30.539Z,62.74
2019-04-16T06:00:03.339Z,63.36
2019-04-16T06:02:39.042Z,62.65
2019-04-16T06:05:09.373Z,62.77
2019-04-16T06:07:39.709Z,62.19
2019-04-16T06:10:10.289Z,62.56
2019-04-16T06:13:09.457Z,62.48
2019-04-16T06:15:50.260Z,61.74
2019-04-16T06:18:39.853Z,61.26
2019-04-16T06:21:31.691Z,61.89
2019-04-16T06:24:12.295Z,61.25
2019-04-16T06:26:55.207Z,60.93
2019-04-16T06:29:39.079Z,61.45
2019-04-16T06:32:17.346Z,61.96
2019-04-16T06:35:04.890Z,61.95
2019-04-16T06:38:00.298Z,60.69
2019-04-16T06:40:37.896Z,60.37
2019-04-16T06:43:25.248Z,59.12
2019-04-16T06:46:10.082Z,58.52
2019-04-16T06:48:54.160Z,57.92
2019-04-16T06:51:45.741Z,58.17
2019-04-16T06:54:34.609Z,58.91
2019-04-16T06:57:29.576Z,57.79
2019-04-16T07:00:13.726Z,56.84
2019-04-16T07:03:02.642Z,56.00
2019-04-16T07:05:48.192Z,56.11
2019-04-16T07:08:37.470Z,56.38
2019-04-16T07:11:01.767Z,56.17
2019-04-16T07:13:31.635Z,56.40
2019-04-16T07:16:01.788Z,56.85
2019-04-16T07:18:31.728Z,57.36
2019-04-16T07:21:02.720Z,56.52
2019-04-16T07:23:32.791Z,56.32
2019-04-16T07:26:03.721Z,54.05
2019-04-16T07:28:39.399Z,53.51
2019-04-16T07:31:31.815Z,52.53
2019-04-16T07:34:13.725Z,51.62
2019-04-16T07:37:11.550Z,51.17
2019-04-16T07:39:55.168Z,51.01
2019-04-16T07:42:51.184Z,50.34
2019-04-16T07:45:20.497Z,49.88
2019-04-16T07:48:06.239Z,49.16
2019-04-16T07:50:53.072Z,48.25
2019-04-16T07:53:47.464Z,48.54
2019-04-16T07:56:20.985Z,48.82
2019-04-16T07:58:51.029Z,46.99
2019-04-16T08:01:21.376Z,47.75
2019-04-16T08:03:51.594Z,47.70
2019-04-16T08:06:21.379Z,46.91
2019-04-16T08:08:53.991Z,47.50
2019-04-16T08:11:24.287Z,47.42
2019-04-16T08:13:54.521Z,47.59
2019-04-16T08:16:25.880Z,47.43
2019-04-16T08:18:55.781Z,47.43
2019-04-16T08:21:26.039Z,47.08
2019-04-16T08:24:01.542Z,46.74
2019-04-16T08:26:31.699Z,47.06
2019-04-16T08:29:01.637Z,46.38
2019-04-16T08:31:33.561Z,46.41
2019-04-16T08:34:03.671Z,46.28
2019-04-16T08:36:34.012Z,46.25
2019-04-16T08:39:07.601Z,46.17
2019-04-16T08:41:37.647Z,46.63
2019-04-16T08:44:10.088Z,46.09
2019-04-16T08:46:41.159Z,46.30
2019-04-16T08:49:14.793Z,45.93
2019-04-16T08:51:43.883Z,45.95
2019-04-16T08:54:17.963Z,45.93
2019-04-16T08:56:45.691Z,45.05
2019-04-16T08:59:15.937Z,45.35
2019-04-16T09:01:45.790Z,45.78
2019-04-16T09:04:16.198Z,45.71
2019-04-16T09:06:47.304Z,45.68
2019-04-16T09:09:37.166Z,44.43
2019-04-16T09:12:09.633Z,44.91
2019-04-16T09:14:46.070Z,45.55
2019-04-16T09:17:30.964Z,45.17
2019-04-16T09:20:18.737Z,44.60
2019-04-16T09:22:49.769Z,44.28
2019-04-16T09:25:38.208Z,43.71
2019-04-16T09:28:26.549Z,44.55
2019-04-16T09:31:22.151Z,44.38
2019-04-16T09:34:05.336Z,43.77
2019-04-16T09:36:56.317Z,44.33
2019-04-16T09:39:42.264Z,44.99
2019-04-16T09:42:12.192Z,43.85
2019-04-16T09:44:42.017Z,43.15
2019-04-16T09:47:13.608Z,43.32
2019-04-16T09:49:44.563Z,43.25
2019-04-16T09:52:14.414Z,43.58
2019-04-16T09:54:45.145Z,44.09
2019-04-16T09:57:16.280Z,43.95
2019-04-16T09:59:56.482Z,44.80
2019-04-16T10:02:29.394Z,44.76
2019-04-16T10:04:59.250Z,43.42
2019-04-16T10:07:29.291Z,43.61
2019-04-16T10:09:59.144Z,43.27
2019-04-16T10:12:29.077Z,44.09
2019-04-16T10:15:00.336Z,44.46
2019-04-16T10:17:30.306Z,44.41
2019-04-16T10:20:00.241Z,44.01
2019-04-16T10:22:30.145Z,44.68
2019-04-16T10:25:11.096Z,44.41
2019-04-16T10:27:43.312Z,44.04
2019-04-16T10:30:35.648Z,44.95
2019-04-16T10:33:05.649Z,42.62
2019-04-16T10:35:35.582Z,42.04
2019-04-16T10:38:19.511Z,41.57
2019-04-16T10:40:54.801Z,41.31
2019-04-16T10:43:44.990Z,40.86
2019-04-16T10:46:37.250Z,40.76
2019-04-16T10:49:26.082Z,40.43
2019-04-16T10:52:09.378Z,39.06
2019-04-16T10:54:43.701Z,38.85
2019-04-16T10:57:31.724Z,38.09
2019-04-16T11:00:19.701Z,39.32
2019-04-16T11:02:54.223Z,38.78
2019-04-16T11:05:32.431Z,37.63
2019-04-16T11:08:04.227Z,38.54
2019-04-16T11:10:34.760Z,36.02
2019-04-16T11:13:06.778Z,37.60
2019-04-16T11:15:37.578Z,36.78
2019-04-16T11:18:07.836Z,36.04
2019-04-16T11:20:38.024Z,35.43
2019-04-16T11:23:08.210Z,35.15
2019-04-16T11:25:38.554Z,37.61
2019-04-16T11:28:08.432Z,36.06
2019-04-16T11:30:41.132Z,35.82
2019-04-16T11:33:11.347Z,36.27
2019-04-16T11:35:41.419Z,34.40
2019-04-16T11:38:11.618Z,35.98
2019-04-16T11:40:41.828Z,34.08
2019-04-16T11:43:11.743Z,34.08
2019-04-16T11:45:41.693Z,35.53
2019-04-16T11:48:11.836Z,34.79
2019-04-16T11:50:41.754Z,33.89
2019-04-16T11:53:11.565Z,34.20
2019-04-16T11:55:41.566Z,34.00
2019-04-16T11:58:25.238Z,33.51
2019-04-16T12:01:00.284Z,33.51
2019-04-16T12:03:40.015Z,33.80
2019-04-16T12:06:31.634Z,34.35
2019-04-16T12:09:09.675Z,34.39
2019-04-16T12:11:44.691Z,33.65
2019-04-16T12:14:42.108Z,33.83
2019-04-16T12:17:15.229Z,33.78
2019-04-16T12:20:03.450Z,34.88
2019-04-16T12:22:44.177Z,33.67
2019-04-16T12:25:36.577Z,34.70
2019-04-16T12:28:26.850Z,34.70
2019-04-16T12:31:07.290Z,33.91
2019-04-16T12:33:54.182Z,33.33
2019-04-16T12:36:46.421Z,33.87
2019-04-16T12:39:31.931Z,34.24
2019-04-16T12:42:19.063Z,33.62
2019-04-16T12:44:55.130Z,33.95
2019-04-16T12:47:37.692Z,34.30
2019-04-16T12:50:17.880Z,32.84
2019-04-16T12:53:13.173Z,32.49
2019-04-16T12:56:05.857Z,31.48
2019-04-16T12:58:42.393Z,31.48
2019-04-16T13:01:19.770Z,31.84
2019-04-16T13:03:56.132Z,32.05
2019-04-16T13:06:54.158Z,31.39
2019-04-16T13:10:02.485Z,32.79
2019-04-16T13:12:45.850Z,32.18
2019-04-16T13:15:32.968Z,31.54
2019-04-16T13:18:24.866Z,31.78
2019-04-16T13:21:03.906Z,31.78
2019-04-16T13:23:37.215Z,31.79
2019-04-16T13:26:15.425Z,31.39
2019-04-16T13:28:45.724Z,31.31
2019-04-16T13:31:15.716Z,31.65
2019-04-16T13:33:47.209Z,32.38
2019-04-16T13:36:18.398Z,31.12
2019-04-16T13:38:53.790Z,31.11
2019-04-16T13:41:27.027Z,32.06
2019-04-16T13:44:00.411Z,32.03
2019-04-16T13:46:30.559Z,31.31
2019-04-16T13:49:09.610Z,30.89
2019-04-16T13:51:39.734Z,31.08
2019-04-16T13:54:37.570Z,31.06
2019-04-16T13:57:11.701Z,30.40
2019-04-16T14:00:04.377Z,30.40
2019-04-16T14:02:52.116Z,30.52
2019-04-16T14:05:24.431Z,31.07
2019-04-16T14:07:54.303Z,30.16
2019-04-16T14:10:24.265Z,30.75
2019-04-16T14:12:54.209Z,30.82
2019-04-16T14:15:32.227Z,31.15
2019-04-16T14:17:59.767Z,30.92
2019-04-16T14:20:28.911Z,31.58
2019-04-16T14:22:58.768Z,32.02
2019-04-16T14:25:28.753Z,31.47
2019-04-16T14:28:01.922Z,31.00
2019-04-16T14:30:39.581Z,31.78
2019-04-16T14:33:08.565Z,32.73
2019-04-16T14:35:40.510Z,31.88
2019-04-16T14:38:11.151Z,31.72
2019-04-16T14:40:42.363Z,31.77
2019-04-16T14:43:14.851Z,32.64
2019-04-16T14:45:58.363Z,33.35
2019-04-16T14:48:19.410Z,33.50
2019-04-16T14:50:49.651Z,34.39
2019-04-16T14:53:36.176Z,33.72
2019-04-16T14:56:30.833Z,33.09
2019-04-16T14:59:05.811Z,33.45
2019-04-16T15:02:00.971Z,33.16
2019-04-16T15:04:40.168Z,33.45
2019-04-16T15:07:28.396Z,34.69
2019-04-16T15:10:13.511Z,34.65
2019-04-16T15:13:02.452Z,34.50
2019-04-16T15:16:05.630Z,33.60
2019-04-16T15:18:32.037Z,34.81
2019-04-16T15:21:19.778Z,34.24
2019-04-16T15:24:08.751Z,34.71
2019-04-16T15:26:53.364Z,34.06
2019-04-16T15:29:44.810Z,34.99
2019-04-16T15:32:25.280Z,36.40
2019-04-16T15:34:55.998Z,35.78
2019-04-16T15:37:39.345Z,35.73
2019-04-16T15:40:15.191Z,34.77
2019-04-16T15:43:11.448Z,35.18
2019-04-16T15:46:25.288Z,35.66
2019-04-16T15:48:51.408Z,35.01
2019-04-16T15:51:30.230Z,35.01
2019-04-16T15:54:15.703Z,36.54
2019-04-16T15:56:52.285Z,36.72
2019-04-16T15:59:44.560Z,36.46
2019-04-16T16:02:33.688Z,36.46
2019-04-16T16:05:13.958Z,37.36
2019-04-16T16:07:57.253Z,37.44
2019-04-16T16:10:35.749Z,38.30
2019-04-16T16:13:05.899Z,40.24
2019-04-16T16:15:40.173Z,42.99
2019-04-16T16:18:08.732Z,42.99
2019-04-16T16:20:38.935Z,47.14
2019-04-16T16:23:10.002Z,46.67
2019-04-16T16:25:41.407Z,46.77
2019-04-16T16:28:11.574Z,46.11
2019-04-16T16:30:41.538Z,46.81
2019-04-16T16:33:11.349Z,46.40
2019-04-16T16:35:56.581Z,45.79
2019-04-16T16:38:14.198Z,44.82
2019-04-16T16:40:49.437Z,44.69
2019-04-16T16:43:17.481Z,44.34
2019-04-16T16:46:00.907Z,45.06
2019-04-16T16:48:30.984Z,46.10
2019-04-16T16:51:00.846Z,45.89
2019-04-16T16:53:48.405Z,45.88
2019-04-16T16:56:26.248Z,45.73
2019-04-16T16:59:01.203Z,46.25
2019-04-16T17:01:54.552Z,46.27
2019-04-16T17:04:30.098Z,45.68
2019-04-16T17:07:00.906Z,46.22
2019-04-16T17:09:37.210Z,46.59
2019-04-16T17:12:07.168Z,46.78
2019-04-16T17:14:38.033Z,46.78
2019-04-16T17:17:14.356Z,47.11
2019-04-16T17:19:41.186Z,47.08
2019-04-16T17:22:14.627Z,47.38
2019-04-16T17:24:43.080Z,47.68
2019-04-16T17:27:14.314Z,47.81
2019-04-16T17:29:46.651Z,48.19
2019-04-16T17:32:16.912Z,48.25
2019-04-16T17:34:46.781Z,48.47
2019-04-16T17:37:17.046Z,48.72
2019-04-16T17:40:00.173Z,49.10
2019-04-16T17:42:37.008Z,49.61
2019-04-16T17:45:25.365Z,50.31
2019-04-16T17:48:10.633Z,50.87
2019-04-16T17:50:58.540Z,51.36
2019-04-16T17:53:50.751Z,51.65
2019-04-16T17:56:58.026Z,51.92
2019-04-16T17:59:33.881Z,52.14
2019-04-16T18:02:25.013Z,52.28
2019-04-16T18:05:12.157Z,52.47
2019-04-16T18:07:59.855Z,52.73
2019-04-16T18:10:40.100Z,53.19
2019-04-16T18:13:15.601Z,53.29
2019-04-16T18:16:19.646Z,53.79
2019-04-16T18:19:03.167Z,53.98
2019-04-16T18:21:46.304Z,54.17
2019-04-16T18:24:34.832Z,54.33
2019-04-16T18:27:11.219Z,54.20
2019-04-16T18:29:52.166Z,54.45
2019-04-16T18:32:40.183Z,54.84
2019-04-16T18:35:25.039Z,54.39
2019-04-16T18:38:04.925Z,54.46
2019-04-16T18:41:06.230Z,54.83
2019-04-16T18:43:54.246Z,55.15
2019-04-16T18:46:46.148Z,55.56
2019-04-16T18:49:18.784Z,55.78
2019-04-16T18:51:48.983Z,55.68
2019-04-16T18:54:18.852Z,56.47
2019-04-16T18:56:49.111Z,56.50
2019-04-16T18:59:18.964Z,56.31
2019-04-16T19:01:51.175Z,56.50
2019-04-16T19:04:21.253Z,55.76
2019-04-16T19:06:51.633Z,54.92
2019-04-16T19:09:21.510Z,55.00
2019-04-16T19:11:51.496Z,55.80
2019-04-16T19:14:21.513Z,55.59
2019-04-16T19:16:51.462Z,55.67
2019-04-16T19:19:22.287Z,55.79
2019-04-16T19:21:53.097Z,56.02
2019-04-16T19:24:23.130Z,55.78
2019-04-16T19:26:52.983Z,55.64
2019-04-16T19:29:22.869Z,55.74
2019-04-16T19:31:56.738Z,55.80
2019-04-16T19:34:24.758Z,56.14
2019-04-16T19:36:56.273Z,56.51
2019-04-16T19:39:26.728Z,57.18
2019-04-16T19:41:58.130Z,57.58
2019-04-16T19:44:33.218Z,57.73
2019-04-16T19:47:00.860Z,57.91
2019-04-16T19:49:30.751Z,57.99
2019-04-16T19:52:00.596Z,58.17
2019-04-16T19:54:31.822Z,58.25
2019-04-16T19:57:01.900Z,58.64
2019-04-16T19:59:31.868Z,58.90
2019-04-16T20:02:02.385Z,58.76
2019-04-16T20:04:32.260Z,58.94
2019-04-16T20:07:02.444Z,58.89
2019-04-16T20:09:32.486Z,58.92
2019-04-16T20:12:02.448Z,59.10
2019-04-16T20:14:35.264Z,59.28
2019-04-16T20:17:03.926Z,59.32
2019-04-16T20:19:36.266Z,59.59
2019-04-16T20:22:06.129Z,59.57
2019-04-16T20:24:35.993Z,59.90
2019-04-16T20:27:07.008Z,60.17
2019-04-16T20:29:36.984Z,60.51
2019-04-16T20:32:07.946Z,60.90
2019-04-16T20:34:37.910Z,61.12
2019-04-16T20:37:07.785Z,61.49
2019-04-16T20:39:40.772Z,61.40
2019-04-16T20:42:09.702Z,61.49
2019-04-16T20:44:40.551Z,61.87
2019-04-16T20:47:10.338Z,62.13
2019-04-16T20:49:40.271Z,62.13
2019-04-16T20:52:10.198Z,62.20
2019-04-16T20:54:44.295Z,62.01
2019-04-16T20:57:15.465Z,62.11
2019-04-16T20:59:45.318Z,62.40
2019-04-16T21:02:15.710Z,62.83
2019-04-16T21:04:45.758Z,62.86
2019-04-16T21:07:15.699Z,62.81
2019-04-16T21:09:45.586Z,62.84
2019-04-16T21:12:15.780Z,63.01
2019-04-16T21:14:45.763Z,63.27
2019-04-16T21:17:16.290Z,63.39
2019-04-16T21:19:47.896Z,63.46
2019-04-16T21:22:18.823Z,63.51
2019-04-16T21:24:49.033Z,63.69
2019-04-16T21:27:18.988Z,63.84
2019-04-16T21:29:48.932Z,63.87
2019-04-16T21:32:37.070Z,64.31
2019-04-16T21:35:13.560Z,64.27
2019-04-16T21:38:05.342Z,64.01
2019-04-16T21:40:35.156Z,64.06
2019-04-16T21:43:07.724Z,64.41
2019-04-16T21:45:36.764Z,64.53
2019-04-16T21:48:06.691Z,64.45
2019-04-16T21:50:36.547Z,64.49
2019-04-16T21:53:06.402Z,64.14
2019-04-16T21:55:36.705Z,64.33
2019-04-16T21:58:07.098Z,64.30
2019-04-16T22:01:05.205Z,64.59
2019-04-16T22:03:41.783Z,64.56
2019-04-16T22:06:08.429Z,64.39
2019-04-16T22:08:38.414Z,64.36
2019-04-16T22:11:11.772Z,64.45
2019-04-16T22:13:39.783Z,64.07
2019-04-16T22:16:09.730Z,64.60
2019-04-16T22:18:41.536Z,64.39
2019-04-16T22:21:11.351Z,64.37
2019-04-16T22:23:41.811Z,64.66
2019-04-16T22:26:11.716Z,64.63
2019-04-16T22:28:44.390Z,64.98
2019-04-16T22:31:13.546Z,65.17
2019-04-16T22:33:43.533Z,65.16
2019-04-16T22:36:13.452Z,65.02
2019-04-16T22:38:46.534Z,65.24
2019-04-16T22:41:35.045Z,65.55
2019-04-16T22:44:22.655Z,65.75
2019-04-16T22:46:56.361Z,65.78
2019-04-16T22:49:26.356Z,65.99
2019-04-16T22:51:57.656Z,66.05
2019-04-16T22:54:27.575Z,66.01
2019-04-16T22:57:16.285Z,66.06
2019-04-16T22:59:46.446Z,65.99
2019-04-16T23:02:21.618Z,65.76
2019-04-16T23:04:51.468Z,65.83
2019-04-16T23:07:21.432Z,65.55
2019-04-16T23:09:51.448Z,65.73
2019-04-16T23:12:21.449Z,65.58
2019-04-16T23:14:51.767Z,65.50
2019-04-16T23:17:24.875Z,65.37
2019-04-16T23:19:55.531Z,65.20
2019-04-16T23:22:26.431Z,65.24
2019-04-16T23:24:56.510Z,65.16
2019-04-16T23:27:26.832Z,65.16
2019-04-16T23:29:56.723Z,65.29
2019-04-16T23:32:28.618Z,65.28
2019-04-16T23:34:58.564Z,65.36
2019-04-16T23:37:28.801Z,65.46
2019-04-16T23:39:59.111Z,65.27
2019-04-16T23:42:29.016Z,65.11
2019-04-16T23:45:36.379Z,65.17
2019-04-16T23:48:17.712Z,65.19
2019-04-16T23:50:55.786Z,65.09
2019-04-16T23:53:43.428Z,65.22
2019-04-16T23:56:31.256Z,65.32
2019-04-16T23:59:14.261Z,65.09
